Time;durP1;ratioP1;P1;durP2;ratioP2;P2;SDS_P1;SDS_P2;PMS_P1;PMS_P2;Temp;Humidity;BMP_temperature;BMP_pressure;BME280_temperature;BME280_humidity;BME280_pressure;Samples;Min_cycle;Max_cycle;Signal;HPM_P1;HPM_P2
2022/04/25 00:05:17;;;;;;;1.12;0.80;;;12.00;99.90;;;;;;1950022;72;22171;-82
2022/04/25 00:08:27;;;;;;;1.98;0.88;;;12.10;99.90;;;;;;1928033;73;21169;-82
2022/04/25 00:11:37;;;;;;;1.00;0.70;;;12.10;99.90;;;;;;1923528;73;21072;-85
2022/04/25 00:17:07;;;;;;;0.93;0.82;;;12.10;99.90;;;;;;1939582;72;22612;-83
2022/04/25 00:20:17;;;;;;;0.70;0.55;;;12.20;99.90;;;;;;1915677;73;21537;-85
2022/04/25 00:23:27;;;;;;;0.85;0.50;;;12.30;99.90;;;;;;1892979;75;21551;-84
2022/04/25 00:26:19;;;;;;;1.85;0.60;;;12.30;99.90;;;;;;1915775;73;21102;-84
2022/04/25 00:29:29;;;;;;;1.50;0.70;;;12.30;99.90;;;;;;1905274;75;21154;-83
2022/04/25 00:32:20;;;;;;;1.52;0.60;;;12.40;99.90;;;;;;1888668;75;21184;-82
2022/04/25 00:35:12;;;;;;;1.12;0.70;;;12.40;99.90;;;;;;1890769;75;21590;-84
2022/04/25 00:38:04;;;;;;;1.25;0.70;;;12.50;99.90;;;;;;1907947;75;21057;-84
2022/04/25 00:43:41;;;;;;;1.40;0.82;;;12.50;99.90;;;;;;1947510;72;27896;-82
2022/04/25 00:46:53;;;;;;;1.15;0.60;;;12.70;99.90;;;;;;1935935;73;21591;-84
2022/04/25 00:50:03;;;;;;;2.02;0.60;;;12.60;99.90;;;;;;1938834;73;21054;-85
2022/04/25 00:52:55;;;;;;;1.42;0.62;;;12.60;99.90;;;;;;1917532;75;21182;-83
2022/04/25 00:56:06;;;;;;;0.80;0.53;;;12.50;99.90;;;;;;1935713;73;21098;-83
2022/04/25 01:01:36;;;;;;;1.47;0.80;;;12.40;99.90;;;;;;1951237;72;22122;-83
2022/04/25 01:07:27;;;;;;;3.33;0.60;;;12.30;99.90;;;;;;1945784;72;22945;-82
2022/04/25 01:10:37;;;;;;;1.45;0.80;;;12.30;99.90;;;;;;1889173;75;21130;-82
2022/04/25 01:13:47;;;;;;;1.70;0.50;;;12.30;99.90;;;;;;1908241;75;21521;-85
2022/04/25 01:19:17;;;;;;;2.58;0.50;;;12.20;99.90;;;;;;1937158;72;22474;-82
2022/04/25 01:28:38;;;;;;;2.85;1.40;;;12.30;99.90;;;;;;1917700;73;21118;-83
2022/04/25 01:31:48;;;;;;;2.98;0.80;;;12.20;99.90;;;;;;1917661;75;21042;-83
2022/04/25 01:34:40;;;;;;;1.75;0.70;;;12.20;99.90;;;;;;1917705;75;21055;-83
2022/04/25 01:37:50;;;;;;;1.25;0.70;;;12.40;99.90;;;;;;1922711;73;21104;-83
2022/04/25 01:40:42;;;;;;;1.95;0.78;;;12.40;99.90;;;;;;1917716;75;21059;-83
2022/04/25 01:43:38;;;;;;;1.30;0.60;;;12.30;99.90;;;;;;1927054;73;21102;-83
2022/04/25 01:46:29;;;;;;;0.55;0.53;;;12.20;99.90;;;;;;1932533;73;21105;-83
2022/04/25 01:52:01;;;;;;;1.40;0.60;;;12.20;99.90;;;;;;1945347;72;22196;-82
2022/04/25 01:55:12;;;;;;;0.95;0.50;;;12.10;99.90;;;;;;1901646;75;21110;-84
2022/04/25 01:58:22;;;;;;;1.32;0.50;;;12.10;99.90;;;;;;1896222;75;21148;-83
2022/04/25 02:01:13;;;;;;;0.60;0.40;;;12.00;99.90;;;;;;1893922;75;21100;-83
2022/04/25 02:04:24;;;;;;;0.50;0.40;;;12.00;99.90;;;;;;1906710;75;21126;-83
2022/04/25 02:07:16;;;;;;;4.33;0.88;;;12.10;99.90;;;;;;1894693;75;21167;-83
2022/04/25 02:10:09;;;;;;;0.55;0.50;;;12.00;99.90;;;;;;1898682;75;21078;-83
2022/04/25 02:13:01;;;;;;;0.95;0.42;;;12.00;99.90;;;;;;1896687;75;21094;-82
2022/04/25 02:15:52;;;;;;;1.95;0.50;;;12.00;99.90;;;;;;1906211;75;21176;-82
2022/04/25 02:18:48;;;;;;;4.90;0.93;;;11.90;99.90;;;;;;1886576;75;21197;-82
2022/04/25 02:24:26;;;;;;;1.92;0.70;;;11.90;99.90;;;;;;1950657;72;27945;-82
2022/04/25 02:27:36;;;;;;;2.77;0.60;;;12.20;99.90;;;;;;1937935;73;21175;-83
2022/04/25 02:30:46;;;;;;;0.37;0.35;;;12.10;99.90;;;;;;1950283;73;21111;-83
2022/04/25 02:33:38;;;;;;;1.45;0.50;;;12.10;99.90;;;;;;1943401;73;21107;-83
2022/04/25 02:36:48;;;;;;;0.57;0.53;;;12.00;99.90;;;;;;1923943;73;21566;-83
2022/04/25 02:39:39;;;;;;;2.45;0.70;;;12.00;99.90;;;;;;1937702;73;21063;-83
2022/04/25 02:42:31;;;;;;;2.92;0.95;;;11.80;99.90;;;;;;1919304;73;21096;-83
2022/04/25 02:45:23;;;;;;;1.62;0.70;;;11.80;99.90;;;;;;1924737;73;21059;-83
2022/04/25 02:48:14;;;;;;;0.98;0.88;;;11.80;99.90;;;;;;1932938;73;21091;-82
2022/04/25 02:53:45;;;;;;;1.65;1.10;;;11.80;99.90;;;;;;1940702;72;22231;-82
2022/04/25 02:56:56;;;;;;;2.40;1.35;;;11.90;99.90;;;;;;1897803;75;21725;-83
2022/04/25 03:00:08;;;;;;;2.75;1.67;;;11.90;99.90;;;;;;1888807;75;21102;-83
2022/04/25 03:02:59;;;;;;;1.25;1.15;;;11.90;99.90;;;;;;1886903;75;21114;-83
2022/04/25 03:06:11;;;;;;;2.65;1.47;;;12.00;99.90;;;;;;1912496;75;21137;-84
2022/04/25 03:09:03;;;;;;;1.92;1.20;;;12.00;99.90;;;;;;1891047;75;21621;-83
2022/04/25 03:11:54;;;;;;;3.10;1.25;;;12.00;99.90;;;;;;1905220;75;21204;-84
2022/04/25 03:14:46;;;;;;;1.60;1.20;;;11.90;99.90;;;;;;1913443;75;21162;-83
2022/04/25 03:17:39;;;;;;;2.75;1.27;;;11.80;99.90;;;;;;1903088;75;21549;-84
2022/04/25 03:20:31;;;;;;;2.35;1.67;;;11.90;99.90;;;;;;1910611;75;21150;-83
2022/04/25 03:23:24;;;;;;;2.80;1.25;;;11.80;99.90;;;;;;1910172;75;21106;-82
2022/04/25 03:26:15;;;;;;;1.40;1.20;;;11.80;99.90;;;;;;1891183;75;21176;-83
2022/04/25 03:29:07;;;;;;;4.80;1.55;;;11.80;99.90;;;;;;1884355;75;21153;-82
2022/04/25 03:31:58;;;;;;;1.70;1.10;;;11.80;99.90;;;;;;1913683;74;21122;-83
2022/04/25 03:34:51;;;;;;;4.58;1.60;;;11.70;99.90;;;;;;1896052;75;21196;-83
2022/04/25 03:40:30;;;;;;;2.00;1.30;;;11.80;99.90;;;;;;1961817;72;22590;-82
2022/04/25 03:43:40;;;;;;;1.25;1.00;;;11.90;99.90;;;;;;1936364;73;21081;-83
2022/04/25 03:46:51;;;;;;;1.57;1.40;;;11.90;99.90;;;;;;1925642;73;21062;-83
2022/04/25 03:49:43;;;;;;;2.55;1.40;;;11.90;99.90;;;;;;1920664;73;21158;-83
2022/04/25 03:52:53;;;;;;;1.40;0.82;;;11.90;99.90;;;;;;1917671;73;21161;-82
2022/04/25 03:58:54;;;;;;;1.55;0.95;;;12.10;99.90;;;;;;1938241;73;21432;-83
2022/04/25 04:01:45;;;;;;;2.15;1.50;;;12.10;99.90;;;;;;1923913;73;21102;-83
2022/04/25 04:04:37;;;;;;;2.85;1.20;;;12.10;99.90;;;;;;1923854;73;21119;-82
2022/04/25 04:07:29;;;;;;;2.35;1.42;;;12.10;99.90;;;;;;1922983;73;21126;-84
2022/04/25 04:10:21;;;;;;;1.40;1.22;;;12.10;99.90;;;;;;1917514;75;21051;-82
2022/04/25 04:13:13;;;;;;;2.60;1.35;;;12.10;99.90;;;;;;1918941;73;21146;-82
2022/04/25 04:16:04;;;;;;;2.10;1.30;;;12.10;99.90;;;;;;1929329;73;21087;-83
2022/04/25 04:18:56;;;;;;;5.37;1.52;;;12.10;99.90;;;;;;1917628;75;21058;-82
2022/04/25 04:21:48;;;;;;;1.87;1.50;;;12.00;99.90;;;;;;1917762;75;21570;-83
2022/04/25 04:27:23;;;;;;;2.80;1.65;;;12.00;99.90;;;;;;1935019;72;22589;-83
2022/04/25 04:30:33;;;;;;;3.75;1.47;;;12.00;99.90;;;;;;1903784;75;21035;-83
2022/04/25 04:33:43;;;;;;;2.85;1.52;;;12.00;99.90;;;;;;1875702;75;21109;-82
2022/04/25 04:36:35;;;;;;;2.22;1.40;;;12.00;99.90;;;;;;1900511;75;21048;-83
2022/04/25 04:39:45;;;;;;;2.55;1.98;;;12.00;99.90;;;;;;1890520;75;21133;-82
2022/04/25 04:45:17;;;;;;;2.52;1.80;;;11.90;99.90;;;;;;1930079;72;22176;-82
2022/04/25 04:48:28;;;;;;;3.22;1.85;;;12.00;99.90;;;;;;1885916;75;21158;-84
2022/04/25 04:54:21;;;;;;;3.50;2.00;;;11.90;99.90;;;;;;1967723;72;22225;-82
2022/04/25 04:57:32;;;;;;;2.42;1.92;;;11.90;99.90;;;;;;1915193;74;21145;-82
2022/04/25 05:00:44;;;;;;;4.53;2.22;;;11.90;99.90;;;;;;1923558;74;21584;-85
2022/04/25 05:03:36;;;;;;;3.05;2.75;;;12.00;99.90;;;;;;1905451;74;21063;-85
2022/04/25 05:06:47;;;;;;;3.35;2.55;;;12.00;99.90;;;;;;1905130;74;21078;-83
2022/04/25 05:09:38;;;;;;;3.80;2.40;;;11.90;99.90;;;;;;1924841;74;21091;-82
2022/04/25 05:12:30;;;;;;;3.58;2.90;;;12.00;99.90;;;;;;1921271;74;21125;-83
2022/04/25 05:15:22;;;;;;;4.00;2.75;;;12.00;99.90;;;;;;1909030;74;21066;-83
2022/04/25 05:18:14;;;;;;;3.50;2.70;;;11.90;99.90;;;;;;1911749;74;21149;-83
2022/04/25 05:23:52;;;;;;;6.12;3.27;;;12.00;99.90;;;;;;1932789;72;22078;-83
2022/04/25 05:27:02;;;;;;;3.67;2.72;;;11.90;99.90;;;;;;1899549;75;21099;-84
2022/04/25 05:32:53;;;;;;;3.72;3.30;;;11.90;99.90;;;;;;1954056;72;22126;-82
2022/04/25 05:38:45;;;;;;;5.72;3.42;;;11.90;99.90;;;;;;1944751;72;22129;-79
2022/04/25 05:41:55;;;;;;;5.50;3.25;;;12.00;99.90;;;;;;1910770;75;21089;-78
2022/04/25 05:45:08;;;;;;;3.98;2.92;;;12.00;99.90;;;;;;1918859;73;21090;-78
2022/04/25 05:54:08;;;;;;;5.58;3.17;;;12.00;99.90;;;;;;1929618;73;21113;-77
2022/04/25 05:59:56;;;;;;;4.60;3.25;;;12.00;99.90;;;;;;1963761;72;22240;-76
2022/04/25 06:03:08;;;;;;;5.03;3.55;;;12.00;99.90;;;;;;1923539;73;21035;-77
2022/04/25 06:08:58;;;;;;;4.90;3.85;;;12.10;99.90;;;;;;1945122;72;22235;-76
2022/04/25 06:12:10;;;;;;;6.53;4.05;;;12.00;99.90;;;;;;1937769;73;21126;-77
2022/04/25 06:17:58;;;;;;;3.98;3.58;;;12.00;99.90;;;;;;1964835;72;22260;-76
2022/04/25 06:21:08;;;;;;;5.47;4.90;;;11.90;99.90;;;;;;1936611;73;21059;-77
2022/04/25 06:26:58;;;;;;;5.40;3.80;;;11.90;99.90;;;;;;1935670;72;22216;-78
2022/04/25 06:30:10;;;;;;;7.58;3.80;;;12.00;99.90;;;;;;1902904;75;21512;-77
2022/04/25 06:33:20;;;;;;;6.75;3.95;;;12.00;99.90;;;;;;1906919;75;21101;-77
2022/04/25 06:36:11;;;;;;;7.33;4.28;;;12.00;99.90;;;;;;1896967;75;21142;-77
2022/04/25 06:41:59;;;;;;;5.92;4.20;;;11.90;99.90;;;;;;1916126;72;22565;-79
2022/04/25 06:45:10;;;;;;;5.12;4.40;;;12.00;99.90;;;;;;1914139;75;21629;-78
2022/04/25 06:48:21;;;;;;;12.80;4.40;;;12.00;99.90;;;;;;1917393;75;21097;-79
2022/04/25 06:51:14;;;;;;;5.85;4.47;;;12.10;99.90;;;;;;1915506;74;21128;-78
2022/04/25 06:57:05;;;;;;;5.58;4.20;;;12.20;99.90;;;;;;1939307;72;22278;-78
2022/04/25 07:00:19;;;;;;;5.72;4.30;;;12.30;99.90;;;;;;1882529;75;21099;-79
2022/04/25 07:03:31;;;;;;;4.58;4.08;;;12.10;99.90;;;;;;1887980;75;21059;-79
2022/04/25 07:06:22;;;;;;;4.90;3.65;;;12.10;99.90;;;;;;1885800;75;21052;-79
2022/04/25 07:09:32;;;;;;;6.80;3.85;;;12.10;99.90;;;;;;1896373;75;21080;-78
2022/04/25 07:12:27;;;;;;;6.03;4.90;;;12.10;99.90;;;;;;1887041;75;21173;-76
2022/04/25 07:15:20;;;;;;;5.83;4.33;;;12.10;99.90;;;;;;1900693;75;21234;-77
2022/04/25 07:18:15;;;;;;;8.03;4.30;;;12.10;99.90;;;;;;1892492;75;21134;-76
2022/04/25 07:30:40;;;;;;;6.05;4.58;;;12.20;99.90;;;;;;1910662;73;21093;-77
2022/04/25 07:33:33;;;;;;;6.00;4.50;;;12.30;99.90;;;;;;1896218;75;21187;-76
2022/04/25 07:36:51;;;;;;;8.38;5.75;;;12.30;99.90;;;;;;1917147;75;21567;-76
2022/04/25 07:39:39;;;;;;;5.78;4.55;;;12.30;99.90;;;;;;1918010;75;21549;-91
2022/04/25 07:42:33;;;;;;;6.25;4.15;;;12.40;99.90;;;;;;1917817;75;21141;-93
2022/04/25 07:45:25;;;;;;;6.40;3.90;;;12.40;99.90;;;;;;1917966;75;21085;-92
2022/04/25 07:48:18;;;;;;;5.17;4.15;;;12.40;99.90;;;;;;1918144;75;21091;-92
2022/04/25 07:51:11;;;;;;;4.55;4.05;;;12.50;99.90;;;;;;1918012;75;21123;-93
2022/04/25 07:54:05;;;;;;;5.80;4.00;;;12.60;99.90;;;;;;1885396;76;21106;-92
2022/04/25 07:56:57;;;;;;;6.83;4.60;;;12.60;99.90;;;;;;1886472;76;21110;-92
2022/04/25 07:59:50;;;;;;;5.70;4.47;;;12.60;99.90;;;;;;1886102;76;21175;-91
2022/04/25 08:02:42;;;;;;;5.17;4.40;;;12.60;99.90;;;;;;1885047;76;21058;-93
2022/04/25 08:05:35;;;;;;;9.05;4.20;;;12.60;99.90;;;;;;1884837;76;21245;-92
2022/04/25 08:08:28;;;;;;;4.95;4.40;;;12.60;99.90;;;;;;1884924;76;21066;-92
2022/04/25 08:11:20;;;;;;;6.58;5.05;;;12.70;99.90;;;;;;1884888;76;21129;-92
2022/04/25 08:20:34;;;;;;;6.55;3.92;;;12.90;99.90;;;;;;1885080;76;21079;-91
2022/04/25 08:23:26;;;;;;;5.83;4.35;;;13.00;99.90;;;;;;1878885;76;21977;-92
2022/04/25 08:26:20;;;;;;;5.40;4.10;;;13.10;99.90;;;;;;1873062;76;21071;-92
2022/04/25 08:29:11;;;;;;;4.92;3.87;;;13.30;99.90;;;;;;1872867;76;21160;-92
2022/04/25 08:32:03;;;;;;;6.15;4.20;;;13.40;99.90;;;;;;1873193;76;21170;-92
2022/04/25 08:34:55;;;;;;;9.48;4.42;;;13.50;99.90;;;;;;1884636;76;21227;-92
2022/04/25 08:37:47;;;;;;;5.12;4.12;;;13.50;99.90;;;;;;1884230;76;21175;-92
2022/04/25 08:40:44;;;;;;;4.95;3.85;;;13.50;99.90;;;;;;1908333;75;21142;-76
2022/04/25 08:43:36;;;;;;;5.33;4.17;;;13.60;99.90;;;;;;1916989;75;21058;-76
2022/04/25 08:49:06;;;;;;;5.87;4.42;;;13.80;99.90;;;;;;1952014;72;22662;-77
2022/04/25 08:52:17;;;;;;;7.55;4.45;;;13.80;99.90;;;;;;1906966;75;21093;-76
2022/04/25 08:55:27;;;;;;;6.45;4.85;;;13.90;99.90;;;;;;1895735;75;21074;-77
2022/04/25 08:58:20;;;;;;;6.03;4.50;;;13.90;99.90;;;;;;1914428;75;21044;-76
2022/04/25 09:01:30;;;;;;;10.10;5.50;;;13.90;99.90;;;;;;1905034;75;21193;-76
2022/04/25 09:04:21;;;;;;;8.23;5.17;;;14.00;99.90;;;;;;1898694;74;21073;-76
2022/04/25 09:07:15;;;;;;;11.88;5.67;;;13.90;99.90;;;;;;1891324;75;21657;-77
2022/04/25 09:12:47;;;;;;;10.03;5.72;;;14.20;99.90;;;;;;1931934;72;22205;-76
2022/04/25 09:15:59;;;;;;;7.95;4.95;;;14.10;99.90;;;;;;1917595;75;21054;-76
2022/04/25 09:19:10;;;;;;;9.35;5.75;;;14.20;99.90;;;;;;1906962;74;21140;-76
2022/04/25 09:22:01;;;;;;;5.58;4.60;;;14.30;99.90;;;;;;1892275;75;22032;-92
2022/04/25 09:25:15;;;;;;;4.70;4.20;;;14.20;99.90;;;;;;1887872;75;21082;-91
2022/04/25 09:28:12;;;;;;;8.33;4.90;;;14.10;99.90;;;;;;1905997;75;21146;-90
2022/04/25 09:31:10;;;;;;;8.53;4.50;;;13.90;99.90;;;;;;1917743;75;21138;-90
2022/04/25 09:34:15;;;;;;;4.92;4.10;;;13.80;99.90;;;;;;1884771;76;21567;-91
2022/04/25 09:37:07;;;;;;;6.00;4.62;;;13.90;99.90;;;;;;1886465;75;21060;-90
2022/04/25 09:40:05;;;;;;;5.12;4.20;;;14.20;99.90;;;;;;1915268;75;21109;-90
2022/04/25 09:43:06;;;;;;;4.35;3.35;;;14.40;99.90;;;;;;1917207;75;21129;-75
2022/04/25 09:46:02;;;;;;;6.00;4.40;;;14.30;99.90;;;;;;1917685;74;21095;-75
2022/04/25 09:49:04;;;;;;;5.08;3.98;;;14.50;99.90;;;;;;1913622;74;21176;-75
2022/04/25 09:52:05;;;;;;;4.72;4.00;;;14.60;99.90;;;;;;1917405;75;21055;-75
2022/04/25 09:55:16;;;;;;;5.65;3.62;;;14.80;99.90;;;;;;1906825;74;21131;-76
2022/04/25 09:58:20;;;;;;;4.60;3.60;;;14.90;99.90;;;;;;1904834;74;21054;-75
2022/04/25 10:01:14;;;;;;;7.95;3.90;;;15.00;99.90;;;;;;1910516;74;21109;-75
2022/04/25 10:04:10;;;;;;;6.53;3.37;;;14.90;99.90;;;;;;1883775;75;21052;-75
2022/04/25 10:07:06;;;;;;;4.97;3.15;;;14.90;99.90;;;;;;1905994;75;21124;-77
2022/04/25 10:09:58;;;;;;;4.70;3.30;;;15.00;99.90;;;;;;1907561;75;21140;-75
2022/04/25 10:12:51;;;;;;;5.42;3.00;;;15.10;99.90;;;;;;1903406;75;21070;-75
2022/04/25 10:15:46;;;;;;;4.05;3.12;;;14.90;99.90;;;;;;1898704;75;21048;-75
2022/04/25 10:18:38;;;;;;;5.58;3.55;;;15.20;99.90;;;;;;1909557;75;21054;-75
2022/04/25 10:21:31;;;;;;;4.95;3.00;;;15.20;99.90;;;;;;1917369;75;21521;-75
2022/04/25 10:24:25;;;;;;;4.90;3.22;;;15.10;99.90;;;;;;1908455;75;21529;-75
2022/04/25 10:27:19;;;;;;;5.87;3.17;;;15.20;99.90;;;;;;1916827;75;21059;-75
2022/04/25 10:30:16;;;;;;;4.83;2.77;;;15.40;99.90;;;;;;1912896;74;21194;-75
2022/04/25 10:36:48;;;;;;;7.25;3.25;;;15.50;99.90;;;;;;1956050;72;22163;-75
2022/04/25 10:39:59;;;;;;;7.12;3.42;;;15.50;99.90;;;;;;1902118;75;21104;-76
2022/04/25 10:47:14;;;;;;;7.50;2.92;;;15.40;99.90;;;;;;1899845;75;21141;-75
2022/04/25 10:50:24;;;;;;;5.20;3.60;;;15.30;99.90;;;;;;1910494;75;21500;-75
2022/04/25 10:53:16;;;;;;;4.95;3.27;;;15.40;99.90;;;;;;1917698;75;21171;-75
2022/04/25 10:56:15;;;;;;;4.35;3.08;;;15.50;99.90;;;;;;1901549;75;21154;-75
2022/04/25 10:59:27;;;;;;;4.40;2.75;;;15.40;99.90;;;;;;1917588;75;21495;-75
2022/04/25 11:02:24;;;;;;;4.70;3.20;;;15.40;99.90;;;;;;1909173;73;21204;-75
2022/04/25 11:05:37;;;;;;;5.33;3.12;;;15.40;99.90;;;;;;1899945;75;21527;-75
2022/04/25 11:08:34;;;;;;;4.58;3.20;;;15.50;99.90;;;;;;1901567;75;21037;-75
2022/04/25 11:11:25;;;;;;;5.85;3.33;;;15.60;99.90;;;;;;1917635;75;21130;-75
2022/04/25 11:14:21;;;;;;;7.08;3.27;;;15.60;99.90;;;;;;1917630;75;21129;-75
2022/04/25 11:17:15;;;;;;;3.30;2.98;;;15.40;99.90;;;;;;1917505;75;21150;-75
2022/04/25 11:20:10;;;;;;;7.33;3.77;;;15.70;99.90;;;;;;1903502;75;21070;-75
2022/04/25 11:23:03;;;;;;;8.10;3.72;;;15.80;99.90;;;;;;1884845;76;21070;-76
2022/04/25 11:26:00;;;;;;;6.75;3.45;;;15.90;99.90;;;;;;1915854;75;21070;-76
2022/04/25 11:29:08;;;;;;;6.92;3.70;;;15.90;99.90;;;;;;1917573;75;21188;-75
2022/04/25 11:32:25;;;;;;;4.75;3.35;;;15.90;99.90;;;;;;1910326;74;21097;-75
2022/04/25 11:35:19;;;;;;;5.93;3.20;;;16.00;99.90;;;;;;1915762;75;21135;-75
2022/04/25 11:38:11;;;;;;;6.42;3.00;;;15.90;99.90;;;;;;1917775;75;21055;-75
2022/04/25 11:41:06;;;;;;;4.37;2.40;;;16.10;99.90;;;;;;1888036;75;21063;-75
2022/04/25 11:43:59;;;;;;;4.75;3.02;;;16.00;99.90;;;;;;1883735;75;21069;-75
2022/04/25 11:46:53;;;;;;;3.55;2.70;;;16.00;99.90;;;;;;1915967;74;21049;-75
2022/04/25 11:49:45;;;;;;;5.25;2.60;;;15.90;99.90;;;;;;1903708;73;21124;-75
2022/04/25 11:52:38;;;;;;;4.30;3.00;;;16.00;99.90;;;;;;1895684;75;21094;-76
2022/04/25 11:55:39;;;;;;;3.52;2.50;;;15.80;99.90;;;;;;1875882;75;21472;-75
2022/04/25 11:58:31;;;;;;;4.12;2.70;;;16.00;99.90;;;;;;1909560;75;21127;-75
2022/04/25 12:01:37;;;;;;;3.98;2.37;;;16.00;99.90;;;;;;1904649;75;21056;-76
2022/04/25 12:04:32;;;;;;;3.45;2.50;;;16.00;99.90;;;;;;1890551;75;21198;-75
2022/04/25 12:07:24;;;;;;;3.67;2.15;;;15.90;99.90;;;;;;1898543;75;21106;-75
2022/04/25 12:16:35;;;;;;;4.60;2.70;;;16.00;99.90;;;;;;1916997;75;21082;-75
2022/04/25 12:19:27;;;;;;;3.83;2.67;;;15.90;99.90;;;;;;1904529;75;21052;-75
2022/04/25 12:22:24;;;;;;;4.58;2.67;;;16.00;99.90;;;;;;1917054;75;21206;-75
2022/04/25 12:25:17;;;;;;;3.42;2.45;;;16.10;99.90;;;;;;1874388;75;21051;-76
2022/04/25 12:28:11;;;;;;;4.60;2.70;;;16.30;99.90;;;;;;1890053;75;21110;-76
2022/04/25 12:31:08;;;;;;;4.60;3.05;;;16.20;99.90;;;;;;1885718;75;21189;-76
2022/04/25 12:34:06;;;;;;;4.23;2.90;;;16.20;99.90;;;;;;1917255;75;21088;-75
2022/04/25 12:37:00;;;;;;;6.15;3.67;;;16.30;99.90;;;;;;1917211;74;21119;-76
2022/04/25 12:40:03;;;;;;;3.67;2.60;;;16.50;99.90;;;;;;1926678;74;21100;-76
2022/04/25 12:42:57;;;;;;;4.90;2.90;;;16.40;99.90;;;;;;1914320;74;21589;-76
2022/04/25 12:45:52;;;;;;;3.52;2.60;;;16.40;99.90;;;;;;1909858;74;21200;-75
2022/04/25 12:49:03;;;;;;;3.05;2.75;;;16.50;99.90;;;;;;1905254;74;21629;-75
2022/04/25 12:52:01;;;;;;;6.12;2.70;;;16.50;99.90;;;;;;1922942;73;21105;-75
2022/04/25 12:54:54;;;;;;;3.75;2.40;;;16.40;99.90;;;;;;1932971;73;21568;-75
2022/04/25 12:57:52;;;;;;;3.87;3.08;;;16.40;99.90;;;;;;1926440;74;21096;-75
2022/04/25 13:00:47;;;;;;;5.03;2.98;;;16.60;99.90;;;;;;1919578;74;21126;-75
2022/04/25 13:04:02;;;;;;;3.62;2.67;;;16.60;99.90;;;;;;1921718;73;21985;-75
2022/04/25 13:06:53;;;;;;;3.80;2.55;;;16.80;99.90;;;;;;1908868;74;21052;-75
2022/04/25 13:09:46;;;;;;;4.20;2.77;;;16.80;99.90;;;;;;1926527;74;21115;-75
2022/04/25 13:12:40;;;;;;;2.90;2.60;;;16.90;99.90;;;;;;1920502;74;21559;-75
2022/04/25 13:15:32;;;;;;;3.83;2.37;;;17.00;99.90;;;;;;1920226;74;21092;-75
2022/04/25 13:18:26;;;;;;;3.92;2.52;;;17.20;99.90;;;;;;1926396;74;21480;-75
2022/04/25 13:21:23;;;;;;;3.25;2.55;;;17.20;99.90;;;;;;1910845;74;21044;-77
2022/04/25 13:24:14;;;;;;;3.20;2.35;;;17.30;99.90;;;;;;1906006;74;21126;-76
2022/04/25 13:27:19;;;;;;;3.55;2.75;;;17.30;99.90;;;;;;1926594;74;21110;-76
2022/04/25 13:30:16;;;;;;;3.15;2.65;;;17.50;99.90;;;;;;1906827;73;21054;-76
2022/04/25 13:33:08;;;;;;;3.30;2.40;;;17.80;99.90;;;;;;1922530;74;21592;-75
2022/04/25 13:36:01;;;;;;;3.67;2.42;;;17.80;99.90;;;;;;1926548;74;21105;-75
2022/04/25 13:38:52;;;;;;;6.53;2.80;;;17.70;99.90;;;;;;1926485;74;21163;-75
2022/04/25 13:41:45;;;;;;;2.95;2.27;;;17.80;99.90;;;;;;1909849;74;21132;-75
2022/04/25 13:44:37;;;;;;;2.45;2.25;;;18.10;99.90;;;;;;1922878;74;21108;-75
2022/04/25 13:47:29;;;;;;;3.45;2.30;;;18.20;99.90;;;;;;1912982;74;21078;-75
2022/04/25 13:50:26;;;;;;;2.47;2.10;;;18.10;99.90;;;;;;1903853;74;21055;-76
2022/04/25 13:53:18;;;;;;;3.55;2.40;;;18.00;99.90;;;;;;1913187;74;21124;-75
2022/04/25 13:56:10;;;;;;;2.00;1.80;;;18.00;99.90;;;;;;1908776;74;21145;-75
2022/04/25 13:59:02;;;;;;;3.45;1.82;;;18.10;99.90;;;;;;1926471;74;21217;-75
2022/04/25 14:01:54;;;;;;;3.77;1.85;;;18.00;99.90;;;;;;1926345;74;21621;-75
2022/04/25 14:04:48;;;;;;;2.45;2.25;;;18.10;99.90;;;;;;1926322;74;21577;-75
2022/04/25 14:07:42;;;;;;;2.83;1.60;;;18.90;99.90;;;;;;1926449;74;21053;-75
2022/04/25 14:10:34;;;;;;;4.08;2.20;;;20.00;99.90;;;;;;1920636;73;21051;-93
2022/04/25 14:13:26;;;;;;;2.02;1.55;;;20.50;99.90;;;;;;1926889;74;21215;-92
2022/04/25 14:16:18;;;;;;;3.25;1.70;;;20.50;99.90;;;;;;1926656;74;21135;-92
2022/04/25 14:19:11;;;;;;;1.50;1.40;;;20.30;99.90;;;;;;1926622;74;21106;-92
2022/04/25 14:22:03;;;;;;;2.02;1.55;;;20.60;99.90;;;;;;1926776;74;21108;-92
2022/04/25 14:24:55;;;;;;;1.67;1.57;;;20.90;99.90;;;;;;1924814;74;21075;-93
2022/04/25 14:27:47;;;;;;;2.65;1.67;;;20.50;99.90;;;;;;1927119;74;21598;-91
2022/04/25 14:30:41;;;;;;;2.20;1.70;;;20.00;99.90;;;;;;1903372;74;21065;-92
2022/04/25 14:33:33;;;;;;;3.30;1.65;;;19.40;99.90;;;;;;1891915;76;21065;-91
2022/04/25 14:36:27;;;;;;;1.92;1.57;;;19.40;99.90;;;;;;1915801;74;21132;-92
2022/04/25 14:39:20;;;;;;;2.98;1.42;;;20.10;99.90;;;;;;1886916;75;21074;-92
2022/04/25 14:42:12;;;;;;;3.65;1.62;;;20.20;99.90;;;;;;1884382;76;21117;-92
2022/04/25 14:45:06;;;;;;;5.10;1.80;;;19.30;99.90;;;;;;1884631;76;21065;-92
2022/04/25 14:47:58;;;;;;;4.10;1.45;;;19.70;99.90;;;;;;1884652;76;21204;-92
2022/04/25 14:57:20;;;;;;;3.08;1.72;;;20.40;99.90;;;;;;1989753;71;22235;-92
2022/04/25 15:00:32;;;;;;;1.87;1.20;;;19.60;99.90;;;;;;1953758;73;21120;-92
2022/04/25 15:03:44;;;;;;;2.42;1.62;;;19.70;99.90;;;;;;2032366;70;21124;-92
2022/04/25 15:06:35;;;;;;;2.70;1.70;;;20.20;99.90;;;;;;2034048;70;21031;-92
2022/04/25 15:09:46;;;;;;;2.05;1.50;;;20.40;99.90;;;;;;2042301;69;21080;-95
2022/04/25 15:12:39;;;;;;;2.62;1.32;;;21.20;99.90;;;;;;2042166;69;21030;-91
2022/04/25 15:15:31;;;;;;;1.30;1.20;;;21.60;99.90;;;;;;2041351;69;21074;-90
2022/04/25 15:18:24;;;;;;;1.90;1.42;;;21.70;99.90;;;;;;2057742;69;21035;-90
2022/04/25 15:21:15;;;;;;;3.08;1.45;;;21.80;99.90;;;;;;2051336;69;21187;-92
2022/04/25 15:24:09;;;;;;;1.52;1.22;;;21.90;99.90;;;;;;2032813;70;21112;-91
2022/04/25 15:27:00;;;;;;;3.02;1.50;;;21.60;99.90;;;;;;2043406;69;21200;-91
2022/04/25 15:29:53;;;;;;;2.10;1.12;;;22.60;99.90;;;;;;2035720;70;21157;-91
2022/04/25 15:32:45;;;;;;;1.70;1.55;;;23.80;99.90;;;;;;2033733;70;21105;-91
2022/04/25 15:35:39;;;;;;;3.15;1.20;;;24.30;99.90;;;;;;2034559;69;21080;-91
2022/04/25 15:38:35;;;;;;;2.08;1.22;;;24.40;99.90;;;;;;2073899;69;21532;-76
2022/04/25 15:41:37;;;;;;;1.30;1.20;;;22.90;99.90;;;;;;2033188;70;21150;-76
2022/04/25 15:44:34;;;;;;;2.98;1.15;;;21.80;99.90;;;;;;2033949;70;21080;-76
2022/04/25 15:47:27;;;;;;;1.85;1.15;;;21.50;99.90;;;;;;2046274;69;21127;-76
2022/04/25 15:50:25;;;;;;;1.30;1.20;;;21.80;99.90;;;;;;2057724;69;21167;-76
2022/04/25 15:57:43;;;;;;;1.32;1.10;;;21.20;99.90;;;;;;2039388;69;21080;-76
2022/04/25 15:59:29;;;;;;;1.82;1.30;;;21.50;99.90;;;;;;2045991;69;21069;-76
2022/04/25 16:02:27;;;;;;;1.47;1.30;;;21.20;99.90;;;;;;1978777;72;21198;-76
2022/04/25 16:05:20;;;;;;;2.52;1.02;;;21.00;99.90;;;;;;1936524;73;21045;-76
2022/04/25 16:08:22;;;;;;;2.22;1.17;;;20.80;99.90;;;;;;1960018;72;21088;-76
2022/04/25 16:11:12;;;;;;;1.52;1.30;;;21.40;99.90;;;;;;1959081;72;21094;-75
2022/04/25 16:14:05;;;;;;;1.65;1.02;;;21.90;99.90;;;;;;1959771;72;21154;-76
2022/04/25 16:16:56;;;;;;;1.62;1.10;;;22.40;99.90;;;;;;1947657;73;21113;-75
2022/04/25 16:19:49;;;;;;;1.15;1.05;;;23.10;99.90;;;;;;1941193;73;21177;-75
2022/04/25 16:22:41;;;;;;;3.30;1.00;;;24.20;99.90;;;;;;1979279;72;21537;-92
2022/04/25 16:26:02;;;;;;;1.50;1.27;;;24.60;99.90;;;;;;1920118;75;21067;-94
2022/04/25 16:29:03;;;;;;;1.20;0.90;;;24.60;99.90;;;;;;1898194;75;21056;-93
2022/04/25 16:32:17;;;;;;;1.77;1.10;;;24.00;99.90;;;;;;1921818;75;21148;-93
2022/04/25 16:35:10;;;;;;;1.15;0.90;;;25.00;99.90;;;;;;1955548;73;21070;-92
2022/04/25 16:38:02;;;;;;;1.37;1.12;;;25.50;99.90;;;;;;1919505;75;21095;-92
2022/04/25 16:40:55;;;;;;;0.90;0.90;;;27.10;99.90;;;;;;1921588;75;21105;-92
2022/04/25 16:43:46;;;;;;;1.50;1.40;;;27.40;98.20;;;;;;1921449;75;21125;-92
2022/04/25 16:46:38;;;;;;;1.95;1.30;;;26.80;97.50;;;;;;1932842;74;21145;-92
2022/04/25 16:49:30;;;;;;;1.77;1.20;;;27.70;97.20;;;;;;1957436;73;21195;-91
2022/04/25 16:52:22;;;;;;;1.30;1.20;;;28.60;94.40;;;;;;1927372;74;21138;-91
2022/04/25 16:55:14;;;;;;;1.45;1.32;;;27.40;94.20;;;;;;1955623;73;21091;-91
2022/04/25 16:58:07;;;;;;;3.02;1.20;;;27.30;93.70;;;;;;1957988;73;21151;-91
2022/04/25 17:00:58;;;;;;;1.50;1.20;;;26.20;94.90;;;;;;2066107;69;21136;-91
2022/04/25 17:03:51;;;;;;;1.70;1.30;;;26.00;96.00;;;;;;2037842;70;21181;-92
2022/04/25 17:06:43;;;;;;;2.30;1.50;;;26.10;97.00;;;;;;2032699;69;21047;-92
2022/04/25 17:09:35;;;;;;;1.70;1.20;;;26.10;96.80;;;;;;2035943;70;21050;-91
2022/04/25 17:12:31;;;;;;;1.62;1.20;;;25.10;97.30;;;;;;2064437;69;21104;-92
2022/04/25 17:15:23;;;;;;;2.45;1.00;;;24.10;98.40;;;;;;2037973;70;21028;-91
2022/04/25 17:18:15;;;;;;;2.33;1.00;;;22.70;99.90;;;;;;2035978;70;21034;-92
2022/04/25 17:21:07;;;;;;;1.20;1.10;;;21.80;99.90;;;;;;2041060;70;21077;-91
2022/04/25 17:24:01;;;;;;;1.40;0.98;;;21.90;99.90;;;;;;2039446;70;21137;-91